This is the latest recevied weather packets stored in our database for station/object IR3AS. If no packets are shown the sender has not sent any weather packets the latest 10 day(s).
| Time | Temp. | Humidity | Pressure | Rain* | Wind** | Luminosity | Snow |
|---|---|---|---|---|---|---|---|
| 1777921853 | 5° C | 81% | 859.8 hPa | 0 mm | - | - | - |
| 1777921553 | 5° C | 79% | 859.1 hPa | 0 mm | - | - | - |
| 1777921253 | 5° C | 80% | 859.5 hPa | 0 mm | - | - | - |
| 1777920953 | 5° C | 80% | 859.7 hPa | 0 mm | - | - | - |
| 1777920653 | 5° C | 79% | 859.2 hPa | 0 mm | - | - | - |
| 1777920353 | 5° C | 79% | 859.6 hPa | 0 mm | - | - | - |
| 1777920053 | 5.56° C | 78% | 859.2 hPa | 0 mm | - | - | - |
| 1777919753 | 5.56° C | 77% | 859.2 hPa | 0 mm | - | - | - |
| 1777919453 | 5.56° C | 77% | 859.2 hPa | 0 mm | - | - | - |
| 1777919153 | 5.56° C | 76% | 859.1 hPa | 0 mm | - | - | - |
| 1777918853 | 5.56° C | 75% | 859.2 hPa | 0 mm | - | - | - |
| 1777918553 | 5.56° C | 75% | 859.6 hPa | 0 mm | - | - | - |
| 1777918284 | 6.11° C | 72% | 858.8 hPa | 0 mm | - | - | - |
| 1777918253 | 6.11° C | 72% | 858.8 hPa | 0 mm | - | - | - |
| 1777917953 | 6.67° C | 71% | 858.8 hPa | 0 mm | - | - | - |
| 1777917653 | 6.67° C | 70% | 858.6 hPa | 0 mm | - | - | - |
| 1777917353 | 7.22° C | 69% | 858.6 hPa | 0 mm | - | - | - |
| 1777917053 | 7.78° C | 68% | 858.4 hPa | 0 mm | - | - | - |
| 1777916753 | 7.78° C | 68% | 858.7 hPa | 0 mm | - | - | - |
| 1777916453 | 8.33° C | 67% | 858.7 hPa | 0 mm | - | - | - |
| 1777916153 | 8.33° C | 68% | 858.5 hPa | 0 mm | - | - | - |
| 1777915890 | 8.33° C | 70% | 858.6 hPa | 0 mm | - | - | - |
| 1777915853 | 8.33° C | 70% | 858.6 hPa | 0 mm | - | - | - |
| 1777915553 | 7.78° C | 71% | 858.5 hPa | 0 mm | - | - | - |
| 1777915253 | 7.22° C | 71% | 858.8 hPa | 0 mm | - | - | - |
* Rain latest hour (hover to see other rain measurements)
** Current wind speed in m/s (hover to see current wind gust speed)